Time;durP1;ratioP1;P1;durP2;ratioP2;P2;SDS_P1;SDS_P2;PMS_P1;PMS_P2;Temp;Humidity;BMP_temperature;BMP_pressure;BME280_temperature;BME280_humidity;BME280_pressure;Samples;Min_cycle;Max_cycle;Signal;HPM_P1;HPM_P2
2022/08/08 00:01:04;;;;;;;8.82;6.40;;;18.40;99.90;;;;;;7338882;19;110705;-78
2022/08/08 00:04:05;;;;;;;11.20;5.93;;;18.30;99.90;;;;;;7343470;19;111302;-77
2022/08/08 00:06:53;;;;;;;9.35;5.90;;;18.10;99.90;;;;;;7338828;19;110486;-77
2022/08/08 00:09:37;;;;;;;11.85;5.78;;;18.10;99.90;;;;;;7337925;19;111604;-77
2022/08/08 00:12:11;;;;;;;8.73;6.05;;;18.20;99.90;;;;;;7336850;19;109354;-77
2022/08/08 00:14:53;;;;;;;11.75;6.35;;;18.30;99.90;;;;;;7337984;19;110397;-77
2022/08/08 00:17:34;;;;;;;9.73;6.97;;;18.30;99.90;;;;;;7337172;19;111224;-77
2022/08/08 00:20:55;;;;;;;10.35;7.57;;;18.20;99.90;;;;;;7338568;19;110266;-77
2022/08/08 00:23:47;;;;;;;11.48;7.32;;;18.00;99.90;;;;;;7337378;19;111547;-77
2022/08/08 00:26:32;;;;;;;10.32;7.38;;;18.00;99.90;;;;;;7337956;19;111688;-77
2022/08/08 00:29:17;;;;;;;11.05;6.93;;;17.90;99.90;;;;;;7343122;19;109678;-78
2022/08/08 00:32:12;;;;;;;9.55;6.57;;;18.00;99.90;;;;;;7337811;19;112726;-78
2022/08/08 00:35:19;;;;;;;8.20;6.78;;;18.00;99.90;;;;;;7338010;19;110644;-77
2022/08/08 00:38:05;;;;;;;;;;;18.00;99.90;;;;;;7338056;19;110465;-77
2022/08/08 00:40:35;;;;;;;14.45;6.68;;;18.00;99.90;;;;;;7340465;19;111232;-79
2022/08/08 00:43:59;;;;;;;8.43;6.57;;;18.00;99.90;;;;;;7338572;19;110983;-77
2022/08/08 00:46:56;;;;;;;9.40;6.65;;;18.00;99.90;;;;;;7337196;19;110360;-78
2022/08/08 00:49:39;;;;;;;12.80;7.03;;;18.00;99.90;;;;;;7336452;19;111368;-77
2022/08/08 00:52:30;;;;;;;11.25;6.78;;;18.00;99.90;;;;;;7337663;19;110110;-76
2022/08/08 00:55:23;;;;;;;10.30;6.65;;;18.00;99.90;;;;;;7342456;19;109666;-78
2022/08/08 00:58:34;;;;;;;8.88;7.05;;;17.90;99.90;;;;;;7335463;19;109741;-77
2022/08/08 01:01:17;;;;;;;11.20;7.25;;;17.90;99.90;;;;;;7336367;19;110393;-78
2022/08/08 01:04:31;;;;;;;13.55;6.78;;;17.90;99.90;;;;;;7335451;19;110611;-78
2022/08/08 01:07:24;;;;;;;15.07;8.55;;;17.80;99.90;;;;;;7340152;19;110064;-77
2022/08/08 01:10:37;;;;;;;11.07;7.57;;;17.80;99.90;;;;;;7343926;19;112275;-77
2022/08/08 01:13:30;;;;;;;12.75;8.88;;;17.60;99.90;;;;;;7342750;19;110824;-77
2022/08/08 01:16:19;;;;;;;12.15;8.60;;;17.50;99.90;;;;;;7343767;19;110576;-78
2022/08/08 01:19:17;;;;;;;15.43;9.00;;;17.40;99.90;;;;;;7343979;19;111016;-78
2022/08/08 01:22:23;;;;;;;13.20;8.50;;;17.30;99.90;;;;;;7349455;19;113122;-77
2022/08/08 01:25:32;;;;;;;12.50;9.40;;;17.20;99.90;;;;;;7343345;19;110455;-78
2022/08/08 01:28:30;;;;;;;16.13;9.73;;;17.20;99.90;;;;;;7344004;19;111107;-78
2022/08/08 01:31:35;;;;;;;11.57;9.30;;;17.10;99.90;;;;;;7343412;19;109894;-78
2022/08/08 01:34:31;;;;;;;14.02;9.63;;;17.10;99.90;;;;;;7342738;19;111715;-78
2022/08/08 01:37:45;;;;;;;12.50;8.68;;;17.00;99.90;;;;;;7343774;19;111278;-77
2022/08/08 01:40:31;;;;;;;16.17;9.18;;;17.10;99.90;;;;;;7340314;19;109440;-77
2022/08/08 01:43:10;;;;;;;11.13;8.82;;;17.10;99.90;;;;;;7341786;19;110871;-78
2022/08/08 01:45:55;;;;;;;12.68;10.30;;;17.20;99.90;;;;;;7347251;19;111146;-78
2022/08/08 01:48:45;;;;;;;12.93;9.82;;;17.20;99.90;;;;;;7340656;19;111240;-77
2022/08/08 01:51:35;;;;;;;14.20;10.05;;;17.30;99.90;;;;;;7342940;19;111961;-77
2022/08/08 01:54:59;;;;;;;17.70;11.10;;;17.20;99.90;;;;;;7336618;19;110886;-77
2022/08/08 01:58:08;;;;;;;14.88;11.40;;;17.10;99.90;;;;;;7340010;19;114844;-77
2022/08/08 02:01:10;;;;;;;15.52;10.77;;;17.10;99.90;;;;;;7341101;19;112175;-77
2022/08/08 02:04:19;;;;;;;15.15;11.75;;;17.10;99.90;;;;;;7340628;19;110826;-77
2022/08/08 02:07:02;;;;;;;24.27;11.85;;;17.00;99.90;;;;;;7341260;19;111763;-77
2022/08/08 02:10:07;;;;;;;18.98;12.30;;;17.00;99.90;;;;;;7340466;19;111266;-77
2022/08/08 02:12:56;;;;;;;16.08;11.80;;;17.00;99.90;;;;;;7343111;19;112333;-77
2022/08/08 02:15:54;;;;;;;14.93;11.38;;;17.00;99.90;;;;;;7336243;19;111217;-77
2022/08/08 02:18:36;;;;;;;14.07;12.05;;;17.00;99.90;;;;;;7338456;19;110469;-77
2022/08/08 02:24:36;;;;;;;17.55;12.68;;;17.10;99.90;;;;;;7339037;19;111728;-77
2022/08/08 02:27:17;;;;;;;15.65;12.48;;;17.00;99.90;;;;;;7332277;19;111907;-77
2022/08/08 02:30:06;;;;;;;18.80;12.98;;;16.80;99.90;;;;;;7336240;19;111856;-77
2022/08/08 02:33:11;;;;;;;17.98;11.27;;;16.80;99.90;;;;;;7334280;19;111738;-77
2022/08/08 02:35:53;;;;;;;17.40;12.05;;;16.80;99.90;;;;;;7334272;19;110997;-77
2022/08/08 02:39:12;;;;;;;21.20;12.23;;;16.80;99.90;;;;;;7339159;19;111731;-77
2022/08/08 02:42:17;;;;;;;18.92;12.55;;;16.70;99.90;;;;;;7333081;19;113302;-77
2022/08/08 02:45:22;;;;;;;18.17;12.25;;;16.60;99.90;;;;;;7333386;19;115381;-77
2022/08/08 02:48:22;;;;;;;18.48;12.52;;;16.50;99.90;;;;;;7332707;19;111673;-77
2022/08/08 02:51:14;;;;;;;18.90;12.63;;;16.60;99.90;;;;;;7333009;19;114223;-77
2022/08/08 02:54:18;;;;;;;16.55;12.27;;;16.60;99.90;;;;;;7331512;19;112450;-77
2022/08/08 02:56:50;;;;;;;14.35;11.27;;;16.60;99.90;;;;;;7332971;19;110498;-77
2022/08/08 02:59:47;;;;;;;16.88;12.82;;;16.60;99.90;;;;;;7332769;19;111493;-76
2022/08/08 03:02:53;;;;;;;17.60;12.57;;;16.60;99.90;;;;;;7332898;19;113817;-77
2022/08/08 03:05:38;;;;;;;14.48;12.45;;;16.50;99.90;;;;;;7341530;19;110483;-77
2022/08/08 03:08:50;;;;;;;22.50;14.00;;;16.50;99.90;;;;;;7334812;19;110724;-78
2022/08/08 03:11:32;;;;;;;15.68;12.90;;;16.40;99.90;;;;;;7335072;19;110561;-77
2022/08/08 03:14:53;;;;;;;18.13;12.35;;;16.30;99.90;;;;;;7337607;19;112256;-77
2022/08/08 03:17:42;;;;;;;21.52;12.45;;;16.30;99.90;;;;;;7336954;19;112888;-77
2022/08/08 03:20:46;;;;;;;15.38;12.05;;;16.40;99.90;;;;;;7336641;19;112421;-77
2022/08/08 03:23:21;;;;;;;16.08;11.60;;;16.40;99.90;;;;;;7336617;19;111513;-77
2022/08/08 03:25:50;;;;;;;13.43;12.00;;;16.40;99.90;;;;;;7334470;19;111237;-77
2022/08/08 03:28:46;;;;;;;17.35;12.77;;;16.50;99.90;;;;;;7337196;19;110568;-77
2022/08/08 03:34:28;;;;;;;15.75;12.80;;;16.50;99.90;;;;;;7336309;19;112772;-77
2022/08/08 03:36:56;;;;;;;19.65;12.98;;;16.60;99.90;;;;;;7337689;19;110464;-77
2022/08/08 03:39:23;;;;;;;22.58;14.55;;;16.50;99.90;;;;;;7335006;19;112161;-77
2022/08/08 03:41:51;;;;;;;23.48;15.18;;;16.50;99.90;;;;;;7335626;19;111364;-77
2022/08/08 03:44:38;;;;;;;19.15;12.93;;;16.30;99.90;;;;;;7337192;19;114467;-77
2022/08/08 03:47:10;;;;;;;21.17;13.40;;;16.30;99.90;;;;;;7336840;19;111724;-77
2022/08/08 03:49:47;;;;;;;17.98;13.63;;;16.30;99.90;;;;;;7333836;19;110951;-77
2022/08/08 03:52:32;;;;;;;19.92;13.77;;;16.40;99.90;;;;;;7333792;19;111022;-77
2022/08/08 03:55:01;;;;;;;22.67;13.45;;;16.40;99.90;;;;;;7337908;19;111773;-77
2022/08/08 03:57:37;;;;;;;21.65;14.27;;;16.40;99.90;;;;;;7332932;19;111507;-77
2022/08/08 04:00:26;;;;;;;22.30;13.60;;;16.40;99.90;;;;;;7334361;19;113434;-77
2022/08/08 04:03:02;;;;;;;20.75;13.85;;;16.40;99.90;;;;;;7332456;19;110534;-77
2022/08/08 04:05:32;;;;;;;19.17;14.02;;;16.40;99.90;;;;;;7331608;19;110762;-76
2022/08/08 04:08:03;;;;;;;19.63;13.45;;;16.40;99.90;;;;;;7333471;19;110830;-77
2022/08/08 04:10:33;;;;;;;23.77;15.35;;;16.40;99.90;;;;;;7334262;19;110416;-77
2022/08/08 04:13:02;;;;;;;20.77;14.60;;;16.30;99.90;;;;;;7334899;19;110577;-77
2022/08/08 04:15:44;;;;;;;19.45;13.52;;;16.20;99.90;;;;;;7341471;19;112473;-76
2022/08/08 04:18:31;;;;;;;17.48;13.10;;;16.20;99.90;;;;;;7336922;19;111927;-76
2022/08/08 04:20:59;;;;;;;18.20;13.52;;;16.20;99.90;;;;;;7335961;19;111175;-77
2022/08/08 04:23:30;;;;;;;22.85;14.07;;;16.20;99.90;;;;;;7334655;19;110986;-78
2022/08/08 04:26:17;;;;;;;21.30;15.55;;;16.20;99.90;;;;;;7333113;19;113015;-77
2022/08/08 04:28:45;;;;;;;20.92;14.95;;;16.10;99.90;;;;;;7333616;19;110769;-77
2022/08/08 04:31:12;;;;;;;21.92;15.30;;;16.00;99.90;;;;;;7335677;19;110498;-77
2022/08/08 04:33:59;;;;;;;20.97;14.57;;;16.00;99.90;;;;;;7335671;19;112705;-77
2022/08/08 04:36:26;;;;;;;20.15;15.15;;;15.90;99.90;;;;;;7335716;19;110805;-77
2022/08/08 04:38:56;;;;;;;19.05;14.93;;;15.80;99.90;;;;;;7340170;19;112718;-76
2022/08/08 04:41:43;;;;;;;21.27;14.37;;;15.80;99.90;;;;;;7337707;19;113397;-77
2022/08/08 04:44:11;;;;;;;17.35;14.02;;;15.80;99.90;;;;;;7341475;19;111220;-77
2022/08/08 04:46:38;;;;;;;19.45;14.50;;;15.90;99.90;;;;;;7340211;19;111040;-77
2022/08/08 04:49:05;;;;;;;19.33;13.23;;;16.00;99.90;;;;;;7342205;19;111393;-77
2022/08/08 04:51:37;;;;;;;21.42;14.38;;;16.00;99.90;;;;;;7342814;19;111716;-76
2022/08/08 04:54:22;;;;;;;23.13;14.73;;;16.10;99.90;;;;;;7339934;19;112580;-77
2022/08/08 04:57:08;;;;;;;22.98;14.57;;;16.10;99.90;;;;;;7340462;19;111808;-77
2022/08/08 04:59:37;;;;;;;19.25;13.05;;;16.00;99.90;;;;;;7340230;19;114045;-77
2022/08/08 05:02:09;;;;;;;21.55;13.57;;;16.10;99.90;;;;;;7347296;19;110834;-77
2022/08/08 05:04:42;;;;;;;21.95;13.75;;;16.10;99.90;;;;;;7341556;19;110127;-77
2022/08/08 05:07:10;;;;;;;20.48;13.13;;;16.30;99.90;;;;;;7338776;19;110365;-77
2022/08/08 05:09:40;;;;;;;20.58;14.15;;;16.30;99.90;;;;;;7341698;19;111798;-77
2022/08/08 05:12:08;;;;;;;19.35;13.90;;;16.40;99.90;;;;;;7338189;19;110774;-77
2022/08/08 05:14:47;;;;;;;25.48;14.73;;;16.30;99.90;;;;;;7340284;19;110580;-77
2022/08/08 05:17:14;;;;;;;20.88;14.75;;;16.20;99.90;;;;;;7341030;19;111985;-77
2022/08/08 05:19:43;;;;;;;24.70;13.88;;;16.20;99.90;;;;;;7340933;19;110730;-77
2022/08/08 05:22:31;;;;;;;20.97;13.60;;;16.20;99.90;;;;;;7341725;19;113304;-77
2022/08/08 05:24:58;;;;;;;19.42;13.70;;;16.20;99.90;;;;;;7347081;19;111966;-76
2022/08/08 05:27:25;;;;;;;19.15;13.40;;;16.20;99.90;;;;;;7339721;19;111356;-77
2022/08/08 05:29:58;;;;;;;23.02;14.10;;;16.30;99.90;;;;;;7339515;19;111765;-77
2022/08/08 05:32:26;;;;;;;22.17;14.25;;;16.40;99.90;;;;;;7342042;19;111217;-78
2022/08/08 05:34:59;;;;;;;17.48;13.15;;;16.50;99.90;;;;;;7340958;19;110971;-79
2022/08/08 05:37:40;;;;;;;26.42;13.60;;;16.50;99.90;;;;;;7340005;19;111742;-78
2022/08/08 05:40:20;;;;;;;22.85;12.18;;;16.60;99.90;;;;;;7342693;19;111096;-77
2022/08/08 05:43:01;;;;;;;18.95;12.70;;;16.60;99.90;;;;;;7341530;19;111507;-77
2022/08/08 05:45:41;;;;;;;19.10;12.52;;;16.70;99.90;;;;;;7341377;19;112272;-78
2022/08/08 05:48:20;;;;;;;17.10;12.60;;;16.80;99.90;;;;;;7347365;19;111989;-79
2022/08/08 05:50:57;;;;;;;16.60;11.93;;;16.80;99.90;;;;;;7338443;19;110808;-78
2022/08/08 05:53:39;;;;;;;22.05;12.02;;;16.90;99.90;;;;;;7337967;19;111476;-79
2022/08/08 05:56:29;;;;;;;18.63;11.13;;;16.90;99.90;;;;;;7339789;19;113568;-77
2022/08/08 05:59:04;;;;;;;17.80;11.30;;;16.90;99.90;;;;;;7338321;19;111949;-77
2022/08/08 06:01:41;;;;;;;18.35;12.38;;;17.00;99.90;;;;;;7341055;19;112433;-78
2022/08/08 06:04:27;;;;;;;18.35;11.57;;;17.20;99.90;;;;;;7341122;19;111407;-78
2022/08/08 06:06:56;;;;;;;16.45;10.88;;;17.30;99.90;;;;;;7338648;19;111714;-78
2022/08/08 06:09:33;;;;;;;16.00;10.88;;;17.30;99.90;;;;;;7340751;19;111337;-78
2022/08/08 06:12:22;;;;;;;20.58;11.55;;;17.30;99.90;;;;;;7345188;19;109790;-77
2022/08/08 06:15:00;;;;;;;16.33;12.18;;;17.30;99.90;;;;;;7338430;19;110391;-77
2022/08/08 06:17:39;;;;;;;14.63;12.85;;;17.30;99.90;;;;;;7339386;19;110365;-78
2022/08/08 06:20:26;;;;;;;19.88;11.48;;;17.40;99.90;;;;;;7340360;19;113494;-78
2022/08/08 06:22:55;;;;;;;20.65;11.32;;;17.50;99.90;;;;;;7339511;19;111269;-78
2022/08/08 06:25:24;;;;;;;14.75;10.65;;;17.50;99.90;;;;;;7339707;19;110349;-78
2022/08/08 06:28:24;;;;;;;14.98;10.93;;;17.60;99.90;;;;;;7337832;19;114247;-77
2022/08/08 06:30:58;;;;;;;15.25;10.45;;;17.70;99.90;;;;;;7337119;19;110293;-78
2022/08/08 06:33:40;;;;;;;13.25;9.50;;;17.80;99.90;;;;;;7344633;19;111397;-77
2022/08/08 06:36:36;;;;;;;17.85;10.02;;;17.90;99.90;;;;;;7341967;19;113679;-76
2022/08/08 06:39:21;;;;;;;17.40;10.02;;;17.90;99.90;;;;;;7338163;19;110803;-78
2022/08/08 06:41:51;;;;;;;15.32;9.50;;;18.00;99.90;;;;;;7338821;19;111785;-77
2022/08/08 06:44:20;;;;;;;19.33;9.63;;;18.10;99.90;;;;;;7340885;19;110164;-78
2022/08/08 06:46:55;;;;;;;15.80;9.45;;;18.10;99.90;;;;;;7340095;19;109283;-76
2022/08/08 06:49:22;;;;;;;13.90;9.07;;;18.20;99.90;;;;;;7341116;19;110514;-77
2022/08/08 06:52:10;;;;;;;10.15;8.75;;;18.30;99.90;;;;;;7338463;19;112731;-77
2022/08/08 06:54:59;;;;;;;;;;;18.40;99.90;;;;;;7340166;19;111121;-78
2022/08/08 06:57:26;;;;;;;14.07;7.70;;;18.40;99.90;;;;;;7345966;19;111058;-78
2022/08/08 07:00:15;;;;;;;12.53;8.30;;;18.60;99.90;;;;;;7341566;19;109717;-78
2022/08/08 07:03:01;;;;;;;11.48;7.55;;;18.70;99.90;;;;;;7340073;19;109746;-77
2022/08/08 07:05:35;;;;;;;12.60;7.85;;;18.80;99.90;;;;;;7338875;19;111259;-77
2022/08/08 07:08:17;;;;;;;9.43;6.78;;;19.00;99.90;;;;;;7338255;19;109582;-78
2022/08/08 07:10:49;;;;;;;8.27;6.05;;;19.10;99.90;;;;;;7337879;19;110591;-77
2022/08/08 07:13:18;;;;;;;10.07;6.40;;;19.20;99.90;;;;;;7340309;19;109929;-77
2022/08/08 07:16:09;;;;;;;10.27;6.63;;;19.30;99.90;;;;;;7340207;19;109462;-77
2022/08/08 07:19:05;;;;;;;10.53;6.23;;;19.30;99.90;;;;;;7341119;19;110642;-77
2022/08/08 07:22:01;;;;;;;9.23;5.40;;;19.40;99.90;;;;;;7345438;19;111417;-77
2022/08/08 07:25:01;;;;;;;10.07;5.88;;;19.40;99.90;;;;;;7338804;19;110355;-77
2022/08/08 07:27:40;;;;;;;7.88;4.97;;;19.60;99.90;;;;;;7337700;19;111383;-77
2022/08/08 07:30:27;;;;;;;9.02;5.18;;;19.80;99.90;;;;;;7340758;19;110164;-78
2022/08/08 07:32:56;;;;;;;7.18;3.88;;;19.90;99.90;;;;;;7338644;19;109624;-78
2022/08/08 07:35:27;;;;;;;5.65;3.95;;;20.00;99.90;;;;;;7340461;19;110565;-76
2022/08/08 07:37:57;;;;;;;8.25;4.13;;;20.00;99.90;;;;;;7340465;19;111382;-77
2022/08/08 07:40:45;;;;;;;6.25;3.85;;;20.20;99.90;;;;;;7340620;19;110875;-77
2022/08/08 07:43:14;;;;;;;9.38;3.70;;;20.30;99.90;;;;;;7339708;19;111327;-77
2022/08/08 07:45:43;;;;;;;6.28;3.13;;;20.40;99.90;;;;;;7345880;19;109416;-77
2022/08/08 07:48:30;;;;;;;7.47;3.17;;;20.40;99.90;;;;;;7337645;19;112793;-77
2022/08/08 07:51:01;;;;;;;6.68;3.20;;;20.40;99.90;;;;;;7340521;19;110267;-77
2022/08/08 07:53:51;;;;;;;6.70;2.70;;;20.40;99.90;;;;;;7337216;19;109372;-78
2022/08/08 07:56:36;;;;;;;3.83;2.50;;;20.50;99.90;;;;;;7340204;19;110890;-77
2022/08/08 07:59:09;;;;;;;4.88;2.63;;;20.60;99.90;;;;;;7339473;19;109481;-77
2022/08/08 08:01:55;;;;;;;6.03;3.00;;;20.60;99.90;;;;;;7337920;19;109885;-78
2022/08/08 08:04:45;;;;;;;9.07;2.30;;;20.60;99.90;;;;;;7338176;19;112959;-78
2022/08/08 08:07:21;;;;;;;3.90;1.90;;;20.60;99.90;;;;;;7338057;19;110672;-77
2022/08/08 08:10:02;;;;;;;5.22;2.08;;;20.80;99.90;;;;;;7345392;19;110394;-77
2022/08/08 08:12:30;;;;;;;4.75;2.70;;;20.90;99.90;;;;;;7339335;19;109470;-78
2022/08/08 08:15:11;;;;;;;4.30;2.13;;;20.90;99.90;;;;;;7338432;19;109680;-77
2022/08/08 08:17:44;;;;;;;6.93;2.33;;;20.90;99.90;;;;;;7338290;19;110461;-78
2022/08/08 08:20:23;;;;;;;5.00;2.78;;;21.00;99.90;;;;;;7341577;19;109501;-77
2022/08/08 08:22:56;;;;;;;17.05;2.50;;;21.00;99.90;;;;;;7339757;19;109917;-77
2022/08/08 08:25:26;;;;;;;23.45;2.35;;;21.10;99.90;;;;;;7339365;19;110503;-78
2022/08/08 08:28:12;;;;;;;7.30;2.17;;;21.20;99.90;;;;;;7335669;19;109260;-77
2022/08/08 08:30:50;;;;;;;8.55;2.60;;;21.30;99.90;;;;;;7345143;19;110221;-77
2022/08/08 08:33:23;;;;;;;8.73;2.63;;;21.40;99.90;;;;;;7337312;19;109405;-77
2022/08/08 08:35:50;;;;;;;6.50;1.95;;;21.50;99.90;;;;;;7339208;19;114608;-77
2022/08/08 08:38:38;;;;;;;6.75;2.15;;;21.60;99.60;;;;;;7339529;19;113221;-77
2022/08/08 08:41:19;;;;;;;5.30;2.47;;;21.80;99.40;;;;;;7339378;19;109380;-77
2022/08/08 08:43:50;;;;;;;6.90;2.13;;;21.80;99.20;;;;;;7338748;19;109783;-77
2022/08/08 08:46:19;;;;;;;5.30;2.65;;;21.90;99.30;;;;;;7338179;19;111488;-77
2022/08/08 08:48:53;;;;;;;5.47;2.63;;;22.00;99.10;;;;;;7338265;19;109405;-77
2022/08/08 08:51:27;;;;;;;7.78;2.60;;;22.10;99.00;;;;;;7338408;19;109548;-78
2022/08/08 08:53:55;;;;;;;5.78;2.40;;;22.00;98.80;;;;;;7342258;19;112689;-77
2022/08/08 08:56:27;;;;;;;10.25;2.50;;;22.20;99.10;;;;;;7339860;19;110494;-77
2022/08/08 08:58:57;;;;;;;6.05;2.50;;;22.30;98.70;;;;;;7337354;19;110547;-77
2022/08/08 09:01:36;;;;;;;4.18;2.47;;;22.40;98.60;;;;;;7337804;19;109762;-77
2022/08/08 09:04:13;;;;;;;5.55;2.30;;;22.50;98.30;;;;;;7337916;19;110244;-76
2022/08/08 09:07:01;;;;;;;5.53;2.50;;;22.60;98.30;;;;;;7337555;19;110919;-77
2022/08/08 09:09:39;;;;;;;5.65;2.25;;;22.60;98.20;;;;;;7338930;19;109709;-78
2022/08/08 09:12:16;;;;;;;5.40;2.08;;;22.70;98.20;;;;;;7335298;19;110843;-77
2022/08/08 09:14:47;;;;;;;4.93;2.03;;;22.60;97.50;;;;;;7338113;19;110188;-77
2022/08/08 09:17:16;;;;;;;7.55;2.28;;;22.60;97.70;;;;;;7342124;19;109373;-76
2022/08/08 09:20:04;;;;;;;5.35;2.30;;;22.60;97.30;;;;;;7336622;19;113158;-77
2022/08/08 09:22:55;;;;;;;3.50;1.83;;;22.70;97.30;;;;;;7336838;19;110201;-78
2022/08/08 09:25:25;;;;;;;4.85;1.30;;;22.80;97.40;;;;;;7338597;19;109392;-77
2022/08/08 09:28:15;;;;;;;15.50;1.60;;;23.00;97.50;;;;;;7338605;19;112878;-77
2022/08/08 09:31:15;;;;;;;5.85;1.10;;;23.10;96.20;;;;;;7344839;19;109475;-77
2022/08/08 09:33:45;;;;;;;3.70;0.95;;;23.10;94.80;;;;;;7344405;19;109529;-77
2022/08/08 09:36:35;;;;;;;3.13;1.08;;;23.10;94.70;;;;;;7341555;19;113272;-78
2022/08/08 09:39:04;;;;;;;4.32;1.10;;;23.20;94.60;;;;;;7344845;19;110323;-77
2022/08/08 09:41:42;;;;;;;5.40;1.00;;;23.30;95.00;;;;;;7347968;19;109423;-77
2022/08/08 09:44:58;;;;;;;3.10;1.00;;;23.20;93.70;;;;;;7342660;19;109540;-77
2022/08/08 09:47:42;;;;;;;2.97;1.25;;;23.40;94.40;;;;;;7340637;19;111044;-78
2022/08/08 09:50:30;;;;;;;3.80;1.00;;;23.50;94.50;;;;;;7344471;19;111755;-78
2022/08/08 09:53:03;;;;;;;4.35;1.25;;;23.60;93.80;;;;;;7343440;19;109891;-78
2022/08/08 09:55:51;;;;;;;5.60;1.60;;;23.70;94.40;;;;;;7343282;19;110530;-77
2022/08/08 09:58:38;;;;;;;6.00;1.48;;;23.90;94.30;;;;;;7343478;19;111789;-78
2022/08/08 10:01:11;;;;;;;3.63;1.60;;;24.10;94.00;;;;;;7341057;19;109740;-77
2022/08/08 10:03:44;;;;;;;2.15;1.20;;;24.00;93.90;;;;;;7342450;19;114314;-78
2022/08/08 10:06:21;;;;;;;13.38;1.55;;;24.00;93.80;;;;;;7350107;19;111734;-78
2022/08/08 10:08:56;;;;;;;5.97;1.15;;;24.10;94.30;;;;;;7340501;19;109509;-77
2022/08/08 10:11:23;;;;;;;3.60;1.00;;;24.20;93.80;;;;;;7340918;19;110474;-78
2022/08/08 10:14:10;;;;;;;;;;;24.30;92.80;;;;;;7342531;19;110736;-79
2022/08/08 10:16:57;;;;;;;3.88;1.20;;;24.30;93.30;;;;;;7348822;19;112303;-79
2022/08/08 10:19:37;;;;;;;3.30;1.10;;;24.20;92.90;;;;;;7344298;19;111610;-79
2022/08/08 10:22:25;;;;;;;3.05;0.80;;;24.30;92.80;;;;;;7344356;19;109420;-80
2022/08/08 10:25:03;;;;;;;3.38;1.00;;;24.30;92.10;;;;;;7342633;19;109557;-79
2022/08/08 10:27:42;;;;;;;4.72;1.05;;;24.10;92.20;;;;;;7341593;19;111071;-80
2022/08/08 10:30:10;;;;;;;5.28;1.08;;;24.00;92.30;;;;;;7348623;19;109705;-79
2022/08/08 10:32:59;;;;;;;2.72;0.82;;;24.10;92.20;;;;;;7341923;19;113155;-78
2022/08/08 10:35:31;;;;;;;2.20;0.90;;;24.10;91.90;;;;;;7342244;19;109354;-79
2022/08/08 10:38:19;;;;;;;5.47;0.70;;;24.20;91.80;;;;;;7340462;19;111435;-79
2022/08/08 10:40:51;;;;;;;3.33;0.68;;;24.30;92.00;;;;;;7338382;19;110109;-79
2022/08/08 10:43:19;;;;;;;1.40;0.50;;;24.40;90.80;;;;;;7340789;19;110070;-78
2022/08/08 10:45:49;;;;;;;3.70;0.90;;;24.40;90.40;;;;;;7341684;19;110417;-78
2022/08/08 10:48:55;;;;;;;2.22;0.70;;;24.50;91.20;;;;;;7339055;19;110814;-81
2022/08/08 10:51:27;;;;;;;5.18;1.08;;;24.70;90.80;;;;;;7346570;19;109695;-78
2022/08/08 10:54:07;;;;;;;9.98;1.33;;;24.80;90.90;;;;;;7338256;19;111088;-78
2022/08/08 10:56:36;;;;;;;7.07;1.08;;;25.00;90.70;;;;;;7341232;19;109784;-78
2022/08/08 10:59:09;;;;;;;6.00;1.00;;;25.00;90.20;;;;;;7339862;19;110328;-81
2022/08/08 11:01:45;;;;;;;2.65;0.90;;;25.10;90.20;;;;;;7340112;19;110401;-79
2022/08/08 11:04:21;;;;;;;4.70;1.10;;;25.10;89.70;;;;;;7340511;19;109528;-78
2022/08/08 11:06:59;;;;;;;3.70;1.27;;;24.90;90.10;;;;;;7338215;19;110107;-79
2022/08/08 11:09:27;;;;;;;3.30;1.00;;;24.90;90.00;;;;;;7337468;19;110392;-78
2022/08/08 11:11:58;;;;;;;3.88;0.77;;;25.00;90.60;;;;;;7339882;19;110107;-81
2022/08/08 11:14:58;;;;;;;2.78;0.70;;;25.30;90.10;;;;;;7344517;19;109869;-78
2022/08/08 11:17:31;;;;;;;2.88;0.88;;;25.30;88.20;;;;;;7341579;19;109556;-79
2022/08/08 11:20:25;;;;;;;2.28;0.82;;;25.20;89.50;;;;;;7338868;19;111514;-79
2022/08/08 11:22:59;;;;;;;5.28;1.00;;;25.30;89.40;;;;;;7340343;19;110997;-78
2022/08/08 11:25:32;;;;;;;4.75;0.90;;;25.40;89.30;;;;;;7340739;19;109401;-79
2022/08/08 11:28:24;;;;;;;6.47;1.35;;;25.40;89.10;;;;;;7337727;19;113456;-78
2022/08/08 11:31:00;;;;;;;4.68;0.77;;;25.20;88.10;;;;;;7340165;19;110774;-78
2022/08/08 11:33:32;;;;;;;4.10;0.70;;;25.10;88.90;;;;;;7339941;19;112491;-79
2022/08/08 11:36:20;;;;;;;2.60;0.80;;;25.00;88.00;;;;;;7339877;19;112655;-78
2022/08/08 11:38:48;;;;;;;6.18;0.90;;;24.90;89.30;;;;;;7346705;19;111202;-78
2022/08/08 11:41:26;;;;;;;2.63;0.80;;;25.20;90.00;;;;;;7339938;19;110388;-81
2022/08/08 11:43:58;;;;;;;3.53;0.80;;;25.50;89.50;;;;;;7338804;19;110460;-78
2022/08/08 11:46:28;;;;;;;3.70;0.77;;;25.70;88.50;;;;;;7340986;19;109451;-80
2022/08/08 11:49:01;;;;;;;2.05;0.70;;;25.50;87.60;;;;;;7338650;19;111925;-81
2022/08/08 11:51:31;;;;;;;3.05;0.70;;;25.40;86.60;;;;;;7337743;19;110227;-80
2022/08/08 11:54:07;;;;;;;4.32;0.70;;;25.20;88.30;;;;;;7337573;19;109365;-78
2022/08/08 11:56:55;;;;;;;2.15;0.60;;;25.40;89.60;;;;;;7340356;19;112011;-80
2022/08/08 11:59:32;;;;;;;2.28;0.60;;;25.60;89.10;;;;;;7340798;19;111499;-81
2022/08/08 12:02:20;;;;;;;2.53;0.80;;;25.70;86.80;;;;;;7344296;19;109589;-79
2022/08/08 12:05:10;;;;;;;4.50;0.68;;;25.70;87.80;;;;;;7338013;19;111466;-79
2022/08/08 12:07:52;;;;;;;3.30;0.55;;;25.80;88.40;;;;;;7339861;19;109659;-78
2022/08/08 12:10:27;;;;;;;6.03;0.80;;;26.10;88.30;;;;;;7338970;19;109720;-78
2022/08/08 12:13:06;;;;;;;4.10;0.70;;;26.40;85.40;;;;;;7338932;19;111468;-78
2022/08/08 12:15:47;;;;;;;2.58;0.70;;;26.40;85.10;;;;;;7336719;19;109748;-79
2022/08/08 12:18:20;;;;;;;2.95;0.60;;;26.40;84.80;;;;;;7339496;19;110406;-79
2022/08/08 12:20:53;;;;;;;3.55;0.70;;;26.30;83.80;;;;;;7338512;19;111275;-79
2022/08/08 12:23:35;;;;;;;2.03;0.75;;;26.40;83.60;;;;;;7335753;19;112175;-80
2022/08/08 12:26:20;;;;;;;3.58;0.68;;;26.40;83.80;;;;;;7343855;19;112095;-79
2022/08/08 12:29:22;;;;;;;2.38;0.70;;;26.40;84.20;;;;;;7337734;19;109678;-79
2022/08/08 12:32:13;;;;;;;5.95;1.17;;;26.20;83.70;;;;;;7340003;19;109932;-79
2022/08/08 12:34:57;;;;;;;3.17;0.60;;;26.10;84.50;;;;;;7337732;19;110155;-78
2022/08/08 12:37:44;;;;;;;1.92;0.50;;;26.20;84.90;;;;;;7338668;19;109873;-79
2022/08/08 12:40:36;;;;;;;1.45;0.50;;;26.20;83.40;;;;;;7338811;19;110486;-78
2022/08/08 12:43:34;;;;;;;3.15;0.55;;;25.90;82.80;;;;;;7337586;19;110232;-78
2022/08/08 12:46:21;;;;;;;2.90;0.85;;;25.90;84.70;;;;;;7338609;19;110179;-78
2022/08/08 12:49:01;;;;;;;4.45;0.60;;;26.30;86.00;;;;;;7335744;19;109893;-79
2022/08/08 12:51:49;;;;;;;1.42;0.47;;;26.70;82.70;;;;;;7343150;19;113726;-78
2022/08/08 12:54:35;;;;;;;1.52;0.65;;;26.80;82.90;;;;;;7336295;19;110627;-80
2022/08/08 12:57:22;;;;;;;1.27;0.50;;;27.20;82.10;;;;;;7337072;19;110591;-79
2022/08/08 12:59:52;;;;;;;1.20;0.50;;;27.30;80.70;;;;;;7339125;19;109792;-79
2022/08/08 13:02:35;;;;;;;4.78;0.60;;;27.40;80.00;;;;;;7340885;19;109484;-79
2022/08/08 13:05:21;;;;;;;1.92;0.70;;;27.30;79.20;;;;;;7345093;19;110219;-78
2022/08/08 13:08:20;;;;;;;3.10;0.68;;;27.30;79.20;;;;;;7345301;19;109836;-79
2022/08/08 13:10:54;;;;;;;2.67;0.70;;;27.30;77.90;;;;;;7345339;19;110885;-80
2022/08/08 13:13:33;;;;;;;2.20;0.75;;;27.10;77.90;;;;;;7348294;19;109850;-79
2022/08/08 13:16:20;;;;;;;3.33;0.60;;;26.80;78.10;;;;;;7343838;19;111871;-79
2022/08/08 13:18:52;;;;;;;4.22;0.50;;;26.50;77.40;;;;;;7345134;19;110977;-79
2022/08/08 13:21:27;;;;;;;3.92;0.60;;;26.30;78.30;;;;;;7344770;19;109373;-78
2022/08/08 13:24:14;;;;;;;1.40;0.45;;;26.50;78.00;;;;;;7345080;19;112514;-79
2022/08/08 13:27:00;;;;;;;2.95;0.50;;;26.60;76.80;;;;;;7344321;19;111529;-78
2022/08/08 13:29:29;;;;;;;1.42;0.55;;;26.60;76.50;;;;;;7342479;19;109349;-79
2022/08/08 13:32:06;;;;;;;2.95;0.40;;;26.70;77.70;;;;;;7342766;19;109535;-78
2022/08/08 13:34:38;;;;;;;3.50;0.50;;;26.90;76.20;;;;;;7343127;19;111437;-79
2022/08/08 13:37:08;;;;;;;5.13;0.60;;;27.00;76.50;;;;;;7350295;19;109521;-79
2022/08/08 13:39:54;;;;;;;3.97;0.90;;;27.20;76.80;;;;;;7343094;19;110314;-78
2022/08/08 13:42:24;;;;;;;2.85;0.50;;;27.60;76.70;;;;;;7343484;19;109712;-80
2022/08/08 13:44:59;;;;;;;3.35;0.40;;;27.90;75.00;;;;;;7343703;19;111333;-79
2022/08/08 13:47:30;;;;;;;1.33;0.40;;;27.60;73.80;;;;;;7343299;19;110378;-79
2022/08/08 13:50:06;;;;;;;1.90;0.68;;;27.30;75.30;;;;;;7341766;19;109793;-78